sensor_id;sensor_type;location;lat;lon;timestamp;temperature;humidity
10722;DHT22;5412;59.450;18.124;2023-06-22T00:00:54;20.30;99.90
10722;DHT22;5412;59.450;18.124;2023-06-22T00:03:22;20.40;99.90
10722;DHT22;5412;59.450;18.124;2023-06-22T00:05:48;20.50;99.90
10722;DHT22;5412;59.450;18.124;2023-06-22T00:08:15;20.40;99.90
10722;DHT22;5412;59.450;18.124;2023-06-22T00:10:41;20.40;99.90
10722;DHT22;5412;59.450;18.124;2023-06-22T00:13:08;20.30;99.90
10722;DHT22;5412;59.450;18.124;2023-06-22T00:15:35;20.20;99.90
10722;DHT22;5412;59.450;18.124;2023-06-22T00:18:02;20.20;99.90
10722;DHT22;5412;59.450;18.124;2023-06-22T00:20:28;20.20;99.90
10722;DHT22;5412;59.450;18.124;2023-06-22T00:22:56;20.20;99.90
10722;DHT22;5412;59.450;18.124;2023-06-22T00:25:22;20.20;99.90
10722;DHT22;5412;59.450;18.124;2023-06-22T00:27:48;20.20;99.90
10722;DHT22;5412;59.450;18.124;2023-06-22T00:30:15;20.20;99.90
10722;DHT22;5412;59.450;18.124;2023-06-22T00:32:41;20.10;99.90
10722;DHT22;5412;59.450;18.124;2023-06-22T00:35:07;20.20;99.90
10722;DHT22;5412;59.450;18.124;2023-06-22T00:37:34;20.30;99.90
10722;DHT22;5412;59.450;18.124;2023-06-22T00:40:01;20.40;99.90
10722;DHT22;5412;59.450;18.124;2023-06-22T00:42:27;20.40;99.90
10722;DHT22;5412;59.450;18.124;2023-06-22T00:44:53;20.30;99.90
10722;DHT22;5412;59.450;18.124;2023-06-22T00:47:18;20.40;99.90
10722;DHT22;5412;59.450;18.124;2023-06-22T00:49:45;20.30;99.90
10722;DHT22;5412;59.450;18.124;2023-06-22T00:52:12;20.30;99.90
10722;DHT22;5412;59.450;18.124;2023-06-22T00:54:50;20.40;99.90
10722;DHT22;5412;59.450;18.124;2023-06-22T00:57:17;20.50;99.90
10722;DHT22;5412;59.450;18.124;2023-06-22T00:59:44;20.40;99.90
10722;DHT22;5412;59.450;18.124;2023-06-22T01:02:11;20.40;99.90
10722;DHT22;5412;59.450;18.124;2023-06-22T01:04:38;20.30;99.90
10722;DHT22;5412;59.450;18.124;2023-06-22T01:09:46;20.40;99.90
10722;DHT22;5412;59.450;18.124;2023-06-22T01:12:16;20.50;99.90
10722;DHT22;5412;59.450;18.124;2023-06-22T01:14:49;20.40;99.90
10722;DHT22;5412;59.450;18.124;2023-06-22T01:17:19;20.40;99.90
10722;DHT22;5412;59.450;18.124;2023-06-22T01:19:48;20.40;99.90
10722;DHT22;5412;59.450;18.124;2023-06-22T01:22:23;20.40;99.90
10722;DHT22;5412;59.450;18.124;2023-06-22T01:27:53;20.50;99.90
10722;DHT22;5412;59.450;18.124;2023-06-22T01:30:22;20.50;99.90
10722;DHT22;5412;59.450;18.124;2023-06-22T01:32:51;20.50;99.90
10722;DHT22;5412;59.450;18.124;2023-06-22T01:35:19;20.50;99.90
10722;DHT22;5412;59.450;18.124;2023-06-22T01:37:46;20.50;99.90
10722;DHT22;5412;59.450;18.124;2023-06-22T01:40:12;20.40;99.90
10722;DHT22;5412;59.450;18.124;2023-06-22T01:42:39;20.20;99.90
10722;DHT22;5412;59.450;18.124;2023-06-22T01:45:05;20.20;99.90
10722;DHT22;5412;59.450;18.124;2023-06-22T01:47:32;20.20;99.90
10722;DHT22;5412;59.450;18.124;2023-06-22T01:49:58;20.20;99.90
10722;DHT22;5412;59.450;18.124;2023-06-22T01:52:24;20.30;99.90
10722;DHT22;5412;59.450;18.124;2023-06-22T01:54:50;20.30;99.90
10722;DHT22;5412;59.450;18.124;2023-06-22T01:57:16;20.20;99.90
10722;DHT22;5412;59.450;18.124;2023-06-22T01:59:59;20.00;99.90
10722;DHT22;5412;59.450;18.124;2023-06-22T02:02:30;20.10;99.90
10722;DHT22;5412;59.450;18.124;2023-06-22T02:05:07;20.10;99.90
10722;DHT22;5412;59.450;18.124;2023-06-22T02:07:41;20.10;99.90
10722;DHT22;5412;59.450;18.124;2023-06-22T02:10:08;20.10;99.90
10722;DHT22;5412;59.450;18.124;2023-06-22T02:12:36;20.00;99.90
10722;DHT22;5412;59.450;18.124;2023-06-22T02:15:02;20.00;99.90
10722;DHT22;5412;59.450;18.124;2023-06-22T02:17:29;20.10;99.90
10722;DHT22;5412;59.450;18.124;2023-06-22T02:19:58;20.00;99.90
10722;DHT22;5412;59.450;18.124;2023-06-22T02:22:24;20.20;99.90
10722;DHT22;5412;59.450;18.124;2023-06-22T02:24:50;20.20;99.90
10722;DHT22;5412;59.450;18.124;2023-06-22T02:27:15;20.30;99.90
10722;DHT22;5412;59.450;18.124;2023-06-22T02:29:41;20.20;99.90
10722;DHT22;5412;59.450;18.124;2023-06-22T02:32:07;20.20;99.90
10722;DHT22;5412;59.450;18.124;2023-06-22T02:34:33;20.20;99.90
10722;DHT22;5412;59.450;18.124;2023-06-22T02:36:59;20.30;99.90
10722;DHT22;5412;59.450;18.124;2023-06-22T02:39:28;20.30;99.90
10722;DHT22;5412;59.450;18.124;2023-06-22T02:41:54;20.30;99.90
10722;DHT22;5412;59.450;18.124;2023-06-22T02:44:20;20.30;99.90
10722;DHT22;5412;59.450;18.124;2023-06-22T02:46:47;20.20;99.90
10722;DHT22;5412;59.450;18.124;2023-06-22T02:49:13;20.20;99.90
10722;DHT22;5412;59.450;18.124;2023-06-22T02:51:45;20.20;99.90
10722;DHT22;5412;59.450;18.124;2023-06-22T02:54:11;20.20;99.90
10722;DHT22;5412;59.450;18.124;2023-06-22T02:56:37;20.20;99.90
10722;DHT22;5412;59.450;18.124;2023-06-22T02:59:03;20.20;99.90
10722;DHT22;5412;59.450;18.124;2023-06-22T03:01:29;20.30;99.90
10722;DHT22;5412;59.450;18.124;2023-06-22T03:03:58;20.30;99.90
10722;DHT22;5412;59.450;18.124;2023-06-22T03:06:24;20.30;99.90
10722;DHT22;5412;59.450;18.124;2023-06-22T03:08:58;20.40;99.90
10722;DHT22;5412;59.450;18.124;2023-06-22T03:11:24;20.40;99.90
10722;DHT22;5412;59.450;18.124;2023-06-22T03:13:50;20.40;99.90
10722;DHT22;5412;59.450;18.124;2023-06-22T03:16:18;20.50;99.90
10722;DHT22;5412;59.450;18.124;2023-06-22T03:18:44;20.50;99.90
10722;DHT22;5412;59.450;18.124;2023-06-22T03:21:10;20.60;99.90
10722;DHT22;5412;59.450;18.124;2023-06-22T03:23:35;20.60;99.90
10722;DHT22;5412;59.450;18.124;2023-06-22T03:26:02;20.60;99.90
10722;DHT22;5412;59.450;18.124;2023-06-22T03:28:27;20.70;99.90
10722;DHT22;5412;59.450;18.124;2023-06-22T03:30:54;20.50;99.90
10722;DHT22;5412;59.450;18.124;2023-06-22T03:33:19;20.40;99.90
10722;DHT22;5412;59.450;18.124;2023-06-22T03:35:45;20.30;99.90
10722;DHT22;5412;59.450;18.124;2023-06-22T03:38:11;20.40;99.90
10722;DHT22;5412;59.450;18.124;2023-06-22T03:40:36;20.50;99.90
10722;DHT22;5412;59.450;18.124;2023-06-22T03:43:02;20.50;99.90
10722;DHT22;5412;59.450;18.124;2023-06-22T03:45:28;20.50;99.90
10722;DHT22;5412;59.450;18.124;2023-06-22T03:47:53;20.50;99.90
10722;DHT22;5412;59.450;18.124;2023-06-22T03:50:19;20.50;99.90
10722;DHT22;5412;59.450;18.124;2023-06-22T03:52:46;20.70;99.90
10722;DHT22;5412;59.450;18.124;2023-06-22T03:55:12;20.60;99.90
10722;DHT22;5412;59.450;18.124;2023-06-22T03:57:38;20.50;99.90
10722;DHT22;5412;59.450;18.124;2023-06-22T04:00:04;20.50;99.90
10722;DHT22;5412;59.450;18.124;2023-06-22T04:02:31;20.50;99.90
10722;DHT22;5412;59.450;18.124;2023-06-22T04:04:57;20.60;99.90
10722;DHT22;5412;59.450;18.124;2023-06-22T04:07:23;20.50;99.90
10722;DHT22;5412;59.450;18.124;2023-06-22T04:09:48;20.10;99.90
10722;DHT22;5412;59.450;18.124;2023-06-22T04:12:14;20.30;99.90
10722;DHT22;5412;59.450;18.124;2023-06-22T04:14:40;20.30;99.90
10722;DHT22;5412;59.450;18.124;2023-06-22T04:17:05;20.40;99.90
10722;DHT22;5412;59.450;18.124;2023-06-22T04:19:31;20.50;99.90
10722;DHT22;5412;59.450;18.124;2023-06-22T04:21:57;20.50;99.90
10722;DHT22;5412;59.450;18.124;2023-06-22T04:24:22;20.60;99.90
10722;DHT22;5412;59.450;18.124;2023-06-22T04:26:48;20.70;99.90
10722;DHT22;5412;59.450;18.124;2023-06-22T04:29:14;20.80;99.90
10722;DHT22;5412;59.450;18.124;2023-06-22T04:31:40;20.70;99.90
10722;DHT22;5412;59.450;18.124;2023-06-22T04:34:07;20.80;99.90
10722;DHT22;5412;59.450;18.124;2023-06-22T04:36:37;20.80;99.90
10722;DHT22;5412;59.450;18.124;2023-06-22T04:39:07;20.80;99.90
10722;DHT22;5412;59.450;18.124;2023-06-22T04:41:35;20.80;99.90
10722;DHT22;5412;59.450;18.124;2023-06-22T04:44:14;20.90;99.90
10722;DHT22;5412;59.450;18.124;2023-06-22T04:46:50;20.80;99.90
10722;DHT22;5412;59.450;18.124;2023-06-22T04:49:20;20.70;99.90
10722;DHT22;5412;59.450;18.124;2023-06-22T04:51:46;20.50;99.90
10722;DHT22;5412;59.450;18.124;2023-06-22T04:54:12;20.60;99.90
10722;DHT22;5412;59.450;18.124;2023-06-22T04:56:38;20.50;99.90
10722;DHT22;5412;59.450;18.124;2023-06-22T04:59:06;20.70;99.90
10722;DHT22;5412;59.450;18.124;2023-06-22T05:01:32;20.70;99.90
10722;DHT22;5412;59.450;18.124;2023-06-22T05:03:58;20.80;99.90
10722;DHT22;5412;59.450;18.124;2023-06-22T05:06:26;20.80;99.90
10722;DHT22;5412;59.450;18.124;2023-06-22T05:08:54;20.70;99.90
10722;DHT22;5412;59.450;18.124;2023-06-22T05:11:27;20.70;99.90
10722;DHT22;5412;59.450;18.124;2023-06-22T05:13:53;20.80;99.90
10722;DHT22;5412;59.450;18.124;2023-06-22T05:16:20;20.70;99.90
10722;DHT22;5412;59.450;18.124;2023-06-22T05:18:55;20.60;99.90
10722;DHT22;5412;59.450;18.124;2023-06-22T05:21:23;20.70;99.90
10722;DHT22;5412;59.450;18.124;2023-06-22T05:23:50;20.80;99.90
10722;DHT22;5412;59.450;18.124;2023-06-22T05:26:16;20.80;99.90
10722;DHT22;5412;59.450;18.124;2023-06-22T05:28:42;20.80;99.90
10722;DHT22;5412;59.450;18.124;2023-06-22T05:31:14;20.80;99.90
10722;DHT22;5412;59.450;18.124;2023-06-22T05:33:41;20.90;99.90
10722;DHT22;5412;59.450;18.124;2023-06-22T05:36:07;20.90;99.90
10722;DHT22;5412;59.450;18.124;2023-06-22T05:38:33;20.90;99.90
10722;DHT22;5412;59.450;18.124;2023-06-22T05:40:58;20.80;99.90
10722;DHT22;5412;59.450;18.124;2023-06-22T05:43:24;20.80;99.90
10722;DHT22;5412;59.450;18.124;2023-06-22T05:45:50;20.80;99.90
10722;DHT22;5412;59.450;18.124;2023-06-22T05:48:16;20.80;99.90
10722;DHT22;5412;59.450;18.124;2023-06-22T05:50:42;20.80;99.90
10722;DHT22;5412;59.450;18.124;2023-06-22T05:53:08;20.90;99.90
10722;DHT22;5412;59.450;18.124;2023-06-22T05:55:33;21.10;99.90
10722;DHT22;5412;59.450;18.124;2023-06-22T05:57:59;21.10;99.90
10722;DHT22;5412;59.450;18.124;2023-06-22T06:00:25;21.20;99.90
10722;DHT22;5412;59.450;18.124;2023-06-22T06:02:51;21.20;99.90
10722;DHT22;5412;59.450;18.124;2023-06-22T06:05:16;21.10;99.90
10722;DHT22;5412;59.450;18.124;2023-06-22T06:07:44;21.20;99.90
10722;DHT22;5412;59.450;18.124;2023-06-22T06:10:10;21.20;99.90
10722;DHT22;5412;59.450;18.124;2023-06-22T06:12:36;21.40;99.90
10722;DHT22;5412;59.450;18.124;2023-06-22T06:15:02;21.40;99.90
10722;DHT22;5412;59.450;18.124;2023-06-22T06:17:28;21.50;99.90
10722;DHT22;5412;59.450;18.124;2023-06-22T06:19:54;21.70;99.90
10722;DHT22;5412;59.450;18.124;2023-06-22T06:22:19;21.60;99.90
10722;DHT22;5412;59.450;18.124;2023-06-22T06:24:47;21.60;99.90
10722;DHT22;5412;59.450;18.124;2023-06-22T06:27:13;21.80;99.90
10722;DHT22;5412;59.450;18.124;2023-06-22T06:29:39;21.80;99.90
10722;DHT22;5412;59.450;18.124;2023-06-22T06:32:05;21.80;99.90
10722;DHT22;5412;59.450;18.124;2023-06-22T06:34:31;21.70;99.90
10722;DHT22;5412;59.450;18.124;2023-06-22T06:36:57;21.60;99.90
10722;DHT22;5412;59.450;18.124;2023-06-22T06:39:22;21.50;99.90
10722;DHT22;5412;59.450;18.124;2023-06-22T06:41:48;21.60;99.90
10722;DHT22;5412;59.450;18.124;2023-06-22T06:44:14;21.50;99.90
10722;DHT22;5412;59.450;18.124;2023-06-22T06:46:40;21.30;99.90
10722;DHT22;5412;59.450;18.124;2023-06-22T06:49:07;21.10;99.90
10722;DHT22;5412;59.450;18.124;2023-06-22T06:51:33;21.10;99.90
10722;DHT22;5412;59.450;18.124;2023-06-22T06:53:58;21.20;99.90
10722;DHT22;5412;59.450;18.124;2023-06-22T06:56:24;21.00;99.90
10722;DHT22;5412;59.450;18.124;2023-06-22T06:58:50;20.60;99.90
10722;DHT22;5412;59.450;18.124;2023-06-22T07:01:16;20.60;99.90
10722;DHT22;5412;59.450;18.124;2023-06-22T07:03:42;20.40;99.90
10722;DHT22;5412;59.450;18.124;2023-06-22T07:06:08;20.40;99.90
10722;DHT22;5412;59.450;18.124;2023-06-22T07:08:34;20.40;99.90
10722;DHT22;5412;59.450;18.124;2023-06-22T07:11:02;20.50;99.90
10722;DHT22;5412;59.450;18.124;2023-06-22T07:13:27;20.40;99.90
10722;DHT22;5412;59.450;18.124;2023-06-22T07:15:53;20.40;99.90
10722;DHT22;5412;59.450;18.124;2023-06-22T07:18:19;20.50;99.90
10722;DHT22;5412;59.450;18.124;2023-06-22T07:20:45;20.70;99.90
10722;DHT22;5412;59.450;18.124;2023-06-22T07:23:10;20.70;99.90
10722;DHT22;5412;59.450;18.124;2023-06-22T07:25:36;20.70;99.90
10722;DHT22;5412;59.450;18.124;2023-06-22T07:28:06;20.70;99.90
10722;DHT22;5412;59.450;18.124;2023-06-22T07:30:33;20.80;99.90
10722;DHT22;5412;59.450;18.124;2023-06-22T07:32:59;20.90;99.90
10722;DHT22;5412;59.450;18.124;2023-06-22T07:35:31;20.80;99.90
10722;DHT22;5412;59.450;18.124;2023-06-22T07:37:57;20.80;99.90
10722;DHT22;5412;59.450;18.124;2023-06-22T07:40:23;20.80;99.90
10722;DHT22;5412;59.450;18.124;2023-06-22T07:42:49;20.80;99.90
10722;DHT22;5412;59.450;18.124;2023-06-22T07:45:17;21.00;99.90
10722;DHT22;5412;59.450;18.124;2023-06-22T07:47:43;21.00;99.90
10722;DHT22;5412;59.450;18.124;2023-06-22T07:50:09;21.00;99.90
10722;DHT22;5412;59.450;18.124;2023-06-22T07:52:35;21.10;99.90
10722;DHT22;5412;59.450;18.124;2023-06-22T07:55:01;21.20;99.90
10722;DHT22;5412;59.450;18.124;2023-06-22T07:57:28;21.10;99.90
10722;DHT22;5412;59.450;18.124;2023-06-22T07:59:59;21.00;99.90
10722;DHT22;5412;59.450;18.124;2023-06-22T08:02:25;21.20;99.90
10722;DHT22;5412;59.450;18.124;2023-06-22T08:04:51;21.40;99.90
10722;DHT22;5412;59.450;18.124;2023-06-22T08:07:17;21.50;99.90
10722;DHT22;5412;59.450;18.124;2023-06-22T08:09:48;21.60;99.90
10722;DHT22;5412;59.450;18.124;2023-06-22T08:12:14;21.70;99.90
10722;DHT22;5412;59.450;18.124;2023-06-22T08:14:42;21.80;99.90
10722;DHT22;5412;59.450;18.124;2023-06-22T08:17:08;21.70;99.90
10722;DHT22;5412;59.450;18.124;2023-06-22T08:19:34;21.70;99.90
10722;DHT22;5412;59.450;18.124;2023-06-22T08:22:00;21.80;99.90
10722;DHT22;5412;59.450;18.124;2023-06-22T08:24:26;21.70;99.90
10722;DHT22;5412;59.450;18.124;2023-06-22T08:26:56;21.90;99.90
10722;DHT22;5412;59.450;18.124;2023-06-22T08:29:21;22.10;99.90
10722;DHT22;5412;59.450;18.124;2023-06-22T08:31:47;22.20;99.90
10722;DHT22;5412;59.450;18.124;2023-06-22T08:34:13;22.40;99.90
10722;DHT22;5412;59.450;18.124;2023-06-22T08:36:39;22.40;99.90
10722;DHT22;5412;59.450;18.124;2023-06-22T08:39:10;22.40;99.90
10722;DHT22;5412;59.450;18.124;2023-06-22T08:41:36;22.80;99.90
10722;DHT22;5412;59.450;18.124;2023-06-22T08:44:01;22.70;99.90
10722;DHT22;5412;59.450;18.124;2023-06-22T08:46:28;23.10;99.90
10722;DHT22;5412;59.450;18.124;2023-06-22T08:48:59;22.80;99.90
10722;DHT22;5412;59.450;18.124;2023-06-22T08:51:25;22.50;99.90
10722;DHT22;5412;59.450;18.124;2023-06-22T08:53:50;22.30;99.90
10722;DHT22;5412;59.450;18.124;2023-06-22T08:56:16;22.30;99.90
10722;DHT22;5412;59.450;18.124;2023-06-22T08:58:42;22.20;99.90
10722;DHT22;5412;59.450;18.124;2023-06-22T09:01:07;22.20;99.90
10722;DHT22;5412;59.450;18.124;2023-06-22T09:03:33;22.40;99.90
10722;DHT22;5412;59.450;18.124;2023-06-22T09:06:01;22.80;99.90
10722;DHT22;5412;59.450;18.124;2023-06-22T09:08:27;22.90;99.90
10722;DHT22;5412;59.450;18.124;2023-06-22T09:10:53;23.40;99.90
10722;DHT22;5412;59.450;18.124;2023-06-22T09:13:19;23.10;99.90
10722;DHT22;5412;59.450;18.124;2023-06-22T09:15:44;22.80;99.90
10722;DHT22;5412;59.450;18.124;2023-06-22T09:18:11;22.40;99.90
10722;DHT22;5412;59.450;18.124;2023-06-22T09:20:37;22.60;99.90
10722;DHT22;5412;59.450;18.124;2023-06-22T09:23:03;23.00;99.90
10722;DHT22;5412;59.450;18.124;2023-06-22T09:25:28;23.30;99.90
10722;DHT22;5412;59.450;18.124;2023-06-22T09:27:54;23.10;99.90
10722;DHT22;5412;59.450;18.124;2023-06-22T09:30:21;23.10;99.90
10722;DHT22;5412;59.450;18.124;2023-06-22T09:32:47;23.30;99.90
10722;DHT22;5412;59.450;18.124;2023-06-22T09:35:13;23.10;99.90
10722;DHT22;5412;59.450;18.124;2023-06-22T09:37:40;23.00;99.90
10722;DHT22;5412;59.450;18.124;2023-06-22T09:40:07;23.20;99.90
10722;DHT22;5412;59.450;18.124;2023-06-22T09:42:35;23.30;99.90
10722;DHT22;5412;59.450;18.124;2023-06-22T09:45:01;23.40;99.90
10722;DHT22;5412;59.450;18.124;2023-06-22T09:47:27;23.70;99.90
10722;DHT22;5412;59.450;18.124;2023-06-22T09:49:53;23.70;99.90
10722;DHT22;5412;59.450;18.124;2023-06-22T09:52:21;23.80;99.90
10722;DHT22;5412;59.450;18.124;2023-06-22T09:54:47;23.90;99.90
10722;DHT22;5412;59.450;18.124;2023-06-22T09:57:12;23.90;99.90
10722;DHT22;5412;59.450;18.124;2023-06-22T09:59:38;23.90;99.90
10722;DHT22;5412;59.450;18.124;2023-06-22T10:02:06;23.70;99.90
10722;DHT22;5412;59.450;18.124;2023-06-22T10:04:32;23.50;99.90
10722;DHT22;5412;59.450;18.124;2023-06-22T10:06:58;23.30;99.90
10722;DHT22;5412;59.450;18.124;2023-06-22T10:09:24;23.70;99.90
10722;DHT22;5412;59.450;18.124;2023-06-22T10:11:49;23.70;99.90
10722;DHT22;5412;59.450;18.124;2023-06-22T10:14:15;23.80;99.90
10722;DHT22;5412;59.450;18.124;2023-06-22T10:16:42;23.60;99.90
10722;DHT22;5412;59.450;18.124;2023-06-22T10:19:08;23.70;99.90
10722;DHT22;5412;59.450;18.124;2023-06-22T10:21:33;23.70;99.90
10722;DHT22;5412;59.450;18.124;2023-06-22T10:24:00;23.80;99.90
10722;DHT22;5412;59.450;18.124;2023-06-22T10:26:35;23.60;99.90
10722;DHT22;5412;59.450;18.124;2023-06-22T10:29:01;23.80;99.90
10722;DHT22;5412;59.450;18.124;2023-06-22T10:31:27;23.80;99.90
10722;DHT22;5412;59.450;18.124;2023-06-22T10:33:54;23.90;99.90
10722;DHT22;5412;59.450;18.124;2023-06-22T10:36:21;24.00;99.90
10722;DHT22;5412;59.450;18.124;2023-06-22T10:38:46;23.70;99.90
10722;DHT22;5412;59.450;18.124;2023-06-22T10:41:13;23.60;99.90
10722;DHT22;5412;59.450;18.124;2023-06-22T10:43:39;23.90;99.90
10722;DHT22;5412;59.450;18.124;2023-06-22T10:46:04;23.90;99.90
10722;DHT22;5412;59.450;18.124;2023-06-22T10:48:30;23.80;99.90
10722;DHT22;5412;59.450;18.124;2023-06-22T10:50:56;23.90;99.90
10722;DHT22;5412;59.450;18.124;2023-06-22T10:53:22;23.90;99.90
10722;DHT22;5412;59.450;18.124;2023-06-22T10:55:47;24.20;99.90
10722;DHT22;5412;59.450;18.124;2023-06-22T10:58:13;24.40;99.90
10722;DHT22;5412;59.450;18.124;2023-06-22T11:00:39;24.50;99.90
10722;DHT22;5412;59.450;18.124;2023-06-22T11:03:05;24.70;99.90
10722;DHT22;5412;59.450;18.124;2023-06-22T11:05:31;24.80;99.90
10722;DHT22;5412;59.450;18.124;2023-06-22T11:07:56;25.00;99.90
10722;DHT22;5412;59.450;18.124;2023-06-22T11:10:22;24.80;99.90
10722;DHT22;5412;59.450;18.124;2023-06-22T11:12:48;24.50;99.90
10722;DHT22;5412;59.450;18.124;2023-06-22T11:15:13;24.70;99.90
10722;DHT22;5412;59.450;18.124;2023-06-22T11:17:39;24.60;99.90
10722;DHT22;5412;59.450;18.124;2023-06-22T11:20:06;24.50;99.90
10722;DHT22;5412;59.450;18.124;2023-06-22T11:22:37;24.60;99.90
10722;DHT22;5412;59.450;18.124;2023-06-22T11:25:05;24.60;99.90
10722;DHT22;5412;59.450;18.124;2023-06-22T11:27:31;24.60;99.90
10722;DHT22;5412;59.450;18.124;2023-06-22T11:29:57;24.40;99.90
10722;DHT22;5412;59.450;18.124;2023-06-22T11:32:23;24.30;99.90
10722;DHT22;5412;59.450;18.124;2023-06-22T11:34:49;24.60;99.90
10722;DHT22;5412;59.450;18.124;2023-06-22T11:37:15;24.70;99.90
10722;DHT22;5412;59.450;18.124;2023-06-22T11:39:41;24.70;99.90
10722;DHT22;5412;59.450;18.124;2023-06-22T11:42:08;24.70;99.90
10722;DHT22;5412;59.450;18.124;2023-06-22T11:44:34;24.90;99.90
10722;DHT22;5412;59.450;18.124;2023-06-22T11:47:00;25.00;99.90
10722;DHT22;5412;59.450;18.124;2023-06-22T11:49:27;25.20;99.90
10722;DHT22;5412;59.450;18.124;2023-06-22T11:51:53;25.20;99.90
10722;DHT22;5412;59.450;18.124;2023-06-22T11:54:18;25.20;99.90
10722;DHT22;5412;59.450;18.124;2023-06-22T11:56:44;25.20;99.90
10722;DHT22;5412;59.450;18.124;2023-06-22T11:59:10;25.30;99.90
10722;DHT22;5412;59.450;18.124;2023-06-22T12:01:36;25.30;99.90
10722;DHT22;5412;59.450;18.124;2023-06-22T12:04:02;25.30;99.90
10722;DHT22;5412;59.450;18.124;2023-06-22T12:06:35;25.20;99.90
10722;DHT22;5412;59.450;18.124;2023-06-22T12:09:03;25.30;99.90
10722;DHT22;5412;59.450;18.124;2023-06-22T12:11:30;25.40;99.90
10722;DHT22;5412;59.450;18.124;2023-06-22T12:13:56;25.40;99.90
10722;DHT22;5412;59.450;18.124;2023-06-22T12:16:21;25.40;99.90
10722;DHT22;5412;59.450;18.124;2023-06-22T12:18:48;25.60;99.90
10722;DHT22;5412;59.450;18.124;2023-06-22T12:21:14;25.80;99.90
10722;DHT22;5412;59.450;18.124;2023-06-22T12:23:39;25.90;99.90
10722;DHT22;5412;59.450;18.124;2023-06-22T12:26:05;25.70;99.90
10722;DHT22;5412;59.450;18.124;2023-06-22T12:28:31;25.90;99.90
10722;DHT22;5412;59.450;18.124;2023-06-22T12:30:57;25.70;99.90
10722;DHT22;5412;59.450;18.124;2023-06-22T12:33:22;25.80;99.90
10722;DHT22;5412;59.450;18.124;2023-06-22T12:35:48;25.80;99.90
10722;DHT22;5412;59.450;18.124;2023-06-22T12:38:14;25.90;99.90
10722;DHT22;5412;59.450;18.124;2023-06-22T12:40:40;26.40;99.90
10722;DHT22;5412;59.450;18.124;2023-06-22T12:43:05;26.20;99.90
10722;DHT22;5412;59.450;18.124;2023-06-22T12:45:33;26.30;99.90
10722;DHT22;5412;59.450;18.124;2023-06-22T12:48:00;26.60;99.90
10722;DHT22;5412;59.450;18.124;2023-06-22T12:50:26;26.70;99.90
10722;DHT22;5412;59.450;18.124;2023-06-22T12:52:51;26.80;99.90
10722;DHT22;5412;59.450;18.124;2023-06-22T12:55:17;27.10;99.90
10722;DHT22;5412;59.450;18.124;2023-06-22T12:57:43;27.20;99.90
10722;DHT22;5412;59.450;18.124;2023-06-22T13:00:09;27.30;99.90
10722;DHT22;5412;59.450;18.124;2023-06-22T13:02:38;27.30;99.90
10722;DHT22;5412;59.450;18.124;2023-06-22T13:05:04;27.50;99.90
10722;DHT22;5412;59.450;18.124;2023-06-22T13:07:32;27.60;99.90
10722;DHT22;5412;59.450;18.124;2023-06-22T13:09:58;27.80;99.90
10722;DHT22;5412;59.450;18.124;2023-06-22T13:12:24;27.70;99.90
10722;DHT22;5412;59.450;18.124;2023-06-22T13:14:50;28.10;99.90
10722;DHT22;5412;59.450;18.124;2023-06-22T13:17:16;28.10;99.90
10722;DHT22;5412;59.450;18.124;2023-06-22T13:19:41;27.90;99.90
10722;DHT22;5412;59.450;18.124;2023-06-22T13:22:34;28.20;99.90
10722;DHT22;5412;59.450;18.124;2023-06-22T13:25:06;28.20;99.90
10722;DHT22;5412;59.450;18.124;2023-06-22T13:27:32;28.20;99.90
10722;DHT22;5412;59.450;18.124;2023-06-22T13:29:58;28.00;99.90
10722;DHT22;5412;59.450;18.124;2023-06-22T13:32:23;28.20;99.90
10722;DHT22;5412;59.450;18.124;2023-06-22T13:34:49;28.30;99.90
10722;DHT22;5412;59.450;18.124;2023-06-22T13:37:15;28.30;99.90
10722;DHT22;5412;59.450;18.124;2023-06-22T13:39:41;28.70;99.90
10722;DHT22;5412;59.450;18.124;2023-06-22T13:42:07;28.80;99.40
10722;DHT22;5412;59.450;18.124;2023-06-22T13:44:33;28.70;99.20
10722;DHT22;5412;59.450;18.124;2023-06-22T13:46:59;28.50;99.40
10722;DHT22;5412;59.450;18.124;2023-06-22T13:49:25;28.20;99.80
10722;DHT22;5412;59.450;18.124;2023-06-22T13:51:51;28.70;99.30
10722;DHT22;5412;59.450;18.124;2023-06-22T13:54:16;28.60;98.10
10722;DHT22;5412;59.450;18.124;2023-06-22T13:56:42;28.70;98.10
10722;DHT22;5412;59.450;18.124;2023-06-22T13:59:08;29.00;97.60
10722;DHT22;5412;59.450;18.124;2023-06-22T14:01:36;29.20;96.50
10722;DHT22;5412;59.450;18.124;2023-06-22T14:04:02;29.20;96.50
10722;DHT22;5412;59.450;18.124;2023-06-22T14:06:27;29.40;95.80
10722;DHT22;5412;59.450;18.124;2023-06-22T14:08:53;29.70;95.10
10722;DHT22;5412;59.450;18.124;2023-06-22T14:11:19;29.70;94.70
10722;DHT22;5412;59.450;18.124;2023-06-22T14:13:45;29.50;94.00
10722;DHT22;5412;59.450;18.124;2023-06-22T14:16:10;29.30;94.10
10722;DHT22;5412;59.450;18.124;2023-06-22T14:18:36;29.80;93.40
10722;DHT22;5412;59.450;18.124;2023-06-22T14:21:02;29.80;93.20
10722;DHT22;5412;59.450;18.124;2023-06-22T14:23:28;30.20;92.80
10722;DHT22;5412;59.450;18.124;2023-06-22T14:25:53;30.30;92.40
10722;DHT22;5412;59.450;18.124;2023-06-22T14:28:19;30.40;91.50
10722;DHT22;5412;59.450;18.124;2023-06-22T14:30:45;30.50;91.10
10722;DHT22;5412;59.450;18.124;2023-06-22T14:33:12;30.20;91.40
10722;DHT22;5412;59.450;18.124;2023-06-22T14:35:38;30.30;90.90
10722;DHT22;5412;59.450;18.124;2023-06-22T14:38:04;30.30;90.80
10722;DHT22;5412;59.450;18.124;2023-06-22T14:40:29;30.70;90.90
10722;DHT22;5412;59.450;18.124;2023-06-22T14:42:55;30.70;88.80
10722;DHT22;5412;59.450;18.124;2023-06-22T14:45:22;30.40;88.20
10722;DHT22;5412;59.450;18.124;2023-06-22T14:47:48;30.60;88.20
10722;DHT22;5412;59.450;18.124;2023-06-22T14:50:14;30.80;88.10
10722;DHT22;5412;59.450;18.124;2023-06-22T14:52:40;30.70;87.20
10722;DHT22;5412;59.450;18.124;2023-06-22T14:55:06;31.10;86.90
10722;DHT22;5412;59.450;18.124;2023-06-22T14:57:32;31.40;86.30
10722;DHT22;5412;59.450;18.124;2023-06-22T14:59:57;32.00;83.70
10722;DHT22;5412;59.450;18.124;2023-06-22T15:02:23;31.60;81.60
10722;DHT22;5412;59.450;18.124;2023-06-22T15:04:49;31.40;82.20
10722;DHT22;5412;59.450;18.124;2023-06-22T15:07:15;31.70;81.60
10722;DHT22;5412;59.450;18.124;2023-06-22T15:09:41;32.10;80.40
10722;DHT22;5412;59.450;18.124;2023-06-22T15:12:08;32.30;79.10
10722;DHT22;5412;59.450;18.124;2023-06-22T15:14:40;32.40;78.00
10722;DHT22;5412;59.450;18.124;2023-06-22T15:17:07;32.40;76.60
10722;DHT22;5412;59.450;18.124;2023-06-22T15:19:36;32.20;76.40
10722;DHT22;5412;59.450;18.124;2023-06-22T15:22:04;32.10;76.20
10722;DHT22;5412;59.450;18.124;2023-06-22T15:24:31;31.80;75.40
10722;DHT22;5412;59.450;18.124;2023-06-22T15:26:56;31.60;75.80
10722;DHT22;5412;59.450;18.124;2023-06-22T15:29:22;31.40;76.30
10722;DHT22;5412;59.450;18.124;2023-06-22T15:31:48;31.70;76.00